EGBB/BHX METAR and TAF weather

Enter ICAO airport designator
Station Type Date Time Source
EGBB METAR 2018/07/19 07:20 UTC NOAA

EGBB 190720Z 32007KT CAVOK 17/12 Q1019


Station Type Date Time Source
EGBB Decoded METAR 2018/07/19 07:20 UTC NOAA

Birmingham / Airport, United Kingdom (EGBB) 52-27N 001-44W 0M
Jul 19, 2018 - 03:20 AM EDT / 2018.07.19 0720 UTC
Wind: from the NW (320 degrees) at 8 MPH (7 KT):0
Visibility: greater than 7 mile(s):0
Temperature: 62 F (17 C)
Dew Point: 53 F (12 C)
Relative Humidity: 72%
Pressure (altimeter): 30.09 in. Hg (1019 hPa)
ob: EGBB 190720Z 32007KT CAVOK 17/12 Q1019
cycle: 7

Station Type Date Time Source
EGBB TAF 2018/07/19 06:16 UTC NOAA

TAF EGBB 190452Z 1906/2006 30004KT 9999 FEW045


Example: see airport list